createdAt,value
2024-05-09T00:00:47.669Z,53.60
2024-05-09T00:06:10.985Z,30.30
2024-05-09T00:16:17.546Z,16.10
2024-05-09T00:21:20.428Z,15.70
2024-05-09T00:26:24.387Z,10.40
2024-05-09T00:31:27.132Z,10.40
2024-05-09T00:36:30.271Z,10.80
2024-05-09T00:41:33.028Z,15.70
2024-05-09T00:46:35.921Z,12.40
2024-05-09T00:51:40.089Z,16.50
2024-05-09T00:56:42.983Z,14.50
2024-05-09T01:01:46.417Z,18.20
2024-05-09T01:06:49.270Z,17.70
2024-05-09T01:11:52.079Z,15.40
2024-05-09T01:16:55.074Z,13.10
2024-05-09T01:21:57.859Z,10.80
2024-05-09T01:27:00.550Z,13.30
2024-05-09T01:32:04.829Z,11.40
2024-05-09T01:37:07.768Z,10.00
2024-05-09T01:42:10.548Z,10.10
2024-05-09T01:47:13.403Z,11.00
2024-05-09T01:52:16.278Z,12.30
2024-05-09T01:57:19.097Z,18.70
2024-05-09T02:02:21.834Z,15.90
2024-05-09T02:07:25.326Z,12.30
2024-05-09T02:12:28.199Z,11.50
2024-05-09T02:17:31.474Z,16.20
2024-05-09T02:22:34.358Z,12.00
2024-05-09T02:27:37.053Z,12.70
2024-05-09T02:32:39.843Z,10.90
2024-05-09T02:37:43.098Z,12.40
2024-05-09T02:47:48.721Z,13.20
2024-05-09T02:57:54.648Z,13.70
2024-05-09T03:02:57.441Z,11.30
2024-05-09T03:08:00.411Z,15.60
2024-05-09T03:13:12.646Z,12.30
2024-05-09T03:18:17.150Z,15.10
2024-05-09T03:23:19.972Z,13.10
2024-05-09T03:28:22.663Z,12.50
2024-05-09T03:33:26.101Z,13.90
2024-05-09T03:38:29.159Z,9.70
2024-05-09T03:43:31.913Z,14.70
2024-05-09T03:48:36.109Z,11.80
2024-05-09T03:53:39.004Z,13.80
2024-05-09T03:58:42.045Z,14.70
2024-05-09T04:03:44.969Z,17.40
2024-05-09T04:08:47.892Z,17.60
2024-05-09T04:13:50.630Z,15.50
2024-05-09T04:18:53.438Z,16.40
2024-05-09T04:23:56.251Z,11.70
2024-05-09T04:28:58.959Z,13.30
2024-05-09T04:34:02.157Z,10.30
2024-05-09T04:44:07.562Z,15.20
2024-05-09T04:49:10.402Z,7.00
2024-05-09T04:54:25.724Z,9.80
2024-05-09T04:59:33.183Z,21.50
2024-05-09T05:04:35.975Z,11.20
2024-05-09T05:09:38.703Z,10.30
2024-05-09T05:14:41.424Z,13.00
2024-05-09T05:19:44.784Z,11.50
2024-05-09T05:24:47.718Z,9.60
2024-05-09T05:29:50.447Z,9.50
2024-05-09T05:34:53.271Z,8.50
2024-05-09T05:39:56.357Z,12.80
2024-05-09T05:50:02.217Z,10.00
2024-05-09T05:55:06.188Z,12.50
2024-05-09T06:00:15.141Z,15.30
2024-05-09T06:05:21.211Z,16.40
2024-05-09T06:10:36.986Z,10.00
2024-05-09T06:15:43.901Z,10.70
2024-05-09T06:20:48.001Z,11.80
2024-05-09T06:25:53.580Z,8.50
2024-05-09T06:30:58.458Z,14.40
2024-05-09T06:37:42.307Z,9.50
2024-05-09T06:42:50.340Z,9.10
2024-05-09T06:47:55.634Z,7.90
2024-05-09T06:52:59.276Z,7.70
2024-05-09T06:58:04.023Z,14.00
2024-05-09T07:03:16.905Z,12.70
2024-05-09T07:08:21.218Z,13.30
2024-05-09T07:13:23.818Z,16.80
2024-05-09T07:18:26.640Z,21.90
2024-05-09T07:23:29.582Z,13.80
2024-05-09T07:28:33.587Z,12.70
2024-05-09T07:33:40.202Z,14.80
2024-05-09T07:38:43.002Z,16.40
2024-05-09T07:43:45.966Z,9.10
2024-05-09T07:53:57.110Z,10.10
2024-05-09T07:59:02.507Z,11.00
2024-05-09T08:04:05.675Z,7.50
2024-05-09T08:09:13.877Z,8.90
2024-05-09T08:14:31.401Z,6.70
2024-05-09T08:19:34.900Z,10.90
2024-05-09T08:24:55.356Z,8.60
2024-05-09T08:30:24.606Z,6.10
2024-05-09T08:35:46.853Z,9.00
2024-05-09T08:40:50.917Z,7.40
2024-05-09T08:45:58.194Z,6.60
2024-05-09T08:51:06.080Z,7.20
2024-05-09T08:56:11.198Z,7.20
2024-05-09T09:01:14.258Z,5.70
2024-05-09T09:06:21.520Z,7.00
2024-05-09T09:11:24.215Z,7.00
2024-05-09T09:21:38.602Z,6.30
2024-05-09T09:26:45.490Z,6.80
2024-05-09T09:32:00.728Z,5.80
2024-05-09T09:37:05.682Z,5.20
2024-05-09T09:42:11.812Z,6.60
2024-05-09T09:47:16.968Z,7.50
2024-05-09T10:07:30.570Z,7.40
2024-05-09T10:12:38.935Z,5.70
2024-05-09T10:17:50.878Z,7.40
2024-05-09T10:22:53.601Z,8.40
2024-05-09T10:27:56.390Z,8.60
2024-05-09T10:33:00.107Z,6.10
2024-05-09T10:38:06.427Z,5.30
2024-05-09T10:43:09.445Z,6.30
2024-05-09T10:48:12.437Z,5.40
2024-05-09T10:53:15.141Z,6.80
2024-05-09T11:03:23.721Z,6.60
2024-05-09T11:08:26.857Z,7.00
2024-05-09T11:13:33.998Z,7.10
2024-05-09T11:18:39.006Z,6.00
2024-05-09T11:23:42.218Z,6.00
2024-05-09T11:28:46.261Z,8.90
2024-05-09T11:33:51.725Z,6.50
2024-05-09T11:38:54.859Z,8.50
2024-05-09T11:43:58.095Z,5.10
2024-05-09T11:49:01.875Z,7.00
2024-05-09T11:54:04.603Z,7.10
2024-05-09T11:59:07.521Z,8.20
2024-05-09T12:04:10.372Z,5.40
2024-05-09T12:09:14.998Z,6.10
2024-05-09T12:14:26.804Z,7.10
2024-05-09T12:19:29.871Z,10.60
2024-05-09T12:24:32.810Z,10.60
2024-05-09T12:29:38.251Z,5.60
2024-05-09T12:34:41.880Z,9.10
2024-05-09T12:39:45.884Z,8.00
2024-05-09T12:44:49.120Z,4.50
2024-05-09T12:49:51.899Z,7.20
2024-05-09T12:54:54.833Z,6.10
2024-05-09T12:59:57.641Z,6.00
2024-05-09T13:05:00.314Z,8.60
2024-05-09T13:10:03.165Z,7.60
2024-05-09T13:15:06.597Z,7.80
2024-05-09T13:20:15.048Z,4.30
2024-05-09T13:25:24.995Z,8.90
2024-05-09T13:30:35.602Z,17.90
2024-05-09T13:35:47.177Z,5.40
2024-05-09T13:40:53.001Z,7.40
2024-05-09T13:45:57.129Z,5.10
2024-05-09T13:50:59.967Z,5.20
2024-05-09T13:56:02.733Z,7.80
2024-05-09T14:01:05.540Z,7.90
2024-05-09T14:06:11.267Z,8.20
2024-05-09T14:11:15.669Z,6.50
2024-05-09T14:16:18.489Z,5.80
2024-05-09T14:21:21.239Z,6.40
2024-05-09T14:26:26.089Z,5.80
2024-05-09T14:31:28.875Z,8.00
2024-05-09T14:36:33.179Z,5.90
2024-05-09T14:41:35.848Z,7.90
2024-05-09T14:46:39.670Z,6.40
2024-05-09T14:51:46.855Z,6.30
2024-05-09T14:56:49.514Z,5.60
2024-05-09T15:01:52.207Z,7.30
2024-05-09T15:06:56.532Z,6.50
2024-05-09T15:11:59.211Z,9.30
2024-05-09T15:17:02.538Z,6.20
2024-05-09T15:22:05.264Z,9.20
2024-05-09T15:27:08.033Z,7.60
2024-05-09T15:32:10.680Z,8.50
2024-05-09T15:37:13.766Z,7.20
2024-05-09T15:42:16.496Z,6.90
2024-05-09T15:47:20.375Z,5.30
2024-05-09T15:52:23.089Z,7.50
2024-05-09T15:57:25.998Z,9.80
2024-05-09T16:02:28.708Z,10.40
2024-05-09T16:07:31.659Z,8.80
2024-05-09T16:12:34.310Z,8.60
2024-05-09T16:17:37.135Z,8.20
2024-05-09T16:22:39.818Z,7.60
2024-05-09T16:27:42.466Z,6.80
2024-05-09T16:32:46.195Z,8.00
2024-05-09T16:37:49.449Z,6.20
2024-05-09T16:42:52.240Z,7.20
2024-05-09T16:47:55.810Z,7.70
2024-05-09T16:52:58.843Z,7.30
2024-05-09T16:58:02.208Z,10.60
2024-05-09T17:03:05.849Z,8.40
2024-05-09T17:08:08.936Z,8.10
2024-05-09T17:13:11.598Z,7.80
2024-05-09T17:18:14.686Z,8.00
2024-05-09T17:23:17.501Z,9.90
2024-05-09T17:28:20.390Z,6.40
2024-05-09T17:33:23.405Z,8.80
2024-05-09T17:38:26.176Z,10.20
2024-05-09T17:43:28.841Z,13.20
2024-05-09T17:48:31.686Z,12.30
2024-05-09T17:53:34.535Z,9.00
2024-05-09T17:58:37.194Z,12.10
2024-05-09T18:03:40.122Z,19.90
2024-05-09T18:08:42.931Z,21.60
2024-05-09T18:18:48.698Z,19.80
2024-05-09T18:23:53.958Z,23.50
2024-05-09T18:28:57.588Z,35.00
2024-05-09T18:34:00.259Z,34.80
2024-05-09T18:39:03.239Z,26.10
2024-05-09T18:44:05.959Z,26.60
2024-05-09T18:49:09.342Z,24.20
2024-05-09T18:54:12.573Z,26.60
2024-05-09T18:59:15.178Z,26.80
2024-05-09T19:04:19.044Z,11.10
2024-05-09T19:09:22.094Z,13.70
2024-05-09T19:14:25.202Z,21.90
2024-05-09T19:19:28.100Z,21.70
2024-05-09T19:24:30.913Z,23.60
2024-05-09T19:29:33.714Z,26.60
2024-05-09T19:34:36.411Z,28.30
2024-05-09T19:39:39.186Z,25.60
2024-05-09T19:44:41.774Z,24.80
2024-05-09T19:49:44.566Z,26.30
2024-05-09T19:54:49.886Z,25.20
2024-05-09T19:59:52.541Z,27.70
2024-05-09T20:04:55.334Z,26.40
2024-05-09T20:15:00.868Z,48.50
2024-05-09T20:20:06.022Z,53.10
2024-05-09T20:25:11.896Z,36.70
2024-05-09T20:30:21.034Z,35.00
2024-05-09T20:35:31.852Z,38.70
2024-05-09T20:40:37.848Z,26.70
2024-05-09T20:45:42.384Z,18.60
2024-05-09T20:50:45.127Z,26.40
2024-05-09T20:55:47.728Z,18.10
2024-05-09T21:00:50.412Z,16.60
2024-05-09T21:05:53.127Z,21.50
2024-05-09T21:10:55.863Z,14.80
2024-05-09T21:15:58.856Z,18.70
2024-05-09T21:21:01.613Z,16.30
2024-05-09T21:26:06.197Z,19.20
2024-05-09T21:31:09.264Z,14.80
2024-05-09T21:41:14.343Z,13.00
2024-05-09T21:46:17.134Z,18.30
2024-05-09T21:51:19.759Z,15.10
2024-05-09T21:56:22.299Z,15.80
2024-05-09T22:01:25.057Z,14.20
2024-05-09T22:06:27.708Z,15.50
2024-05-09T22:11:31.120Z,17.90
2024-05-09T22:16:33.787Z,17.90
2024-05-09T22:21:36.402Z,17.30
2024-05-09T22:26:39.023Z,11.80
2024-05-09T22:31:41.639Z,12.60
2024-05-09T22:36:44.214Z,17.70
2024-05-09T22:41:46.804Z,17.80
2024-05-09T22:46:49.402Z,25.00
2024-05-09T22:51:52.111Z,17.90
2024-05-09T22:56:54.707Z,15.00
2024-05-09T23:01:57.301Z,16.40
2024-05-09T23:06:59.980Z,16.00
2024-05-09T23:12:02.700Z,14.70
2024-05-09T23:17:05.399Z,14.10
2024-05-09T23:22:08.342Z,20.90
2024-05-09T23:27:11.017Z,16.00
2024-05-09T23:32:13.713Z,18.60
2024-05-09T23:37:16.445Z,18.20
2024-05-09T23:42:19.280Z,20.40
2024-05-09T23:47:22.041Z,20.80
2024-05-09T23:52:24.814Z,13.90
2024-05-09T23:57:27.482Z,17.10
